Time;durP1;ratioP1;P1;durP2;ratioP2;P2;SDS_P1;SDS_P2;PMS_P1;PMS_P2;Temp;Humidity;BMP_temperature;BMP_pressure;BME280_temperature;BME280_humidity;BME280_pressure;Samples;Min_cycle;Max_cycle;Signal;HPM_P1;HPM_P2
2021/07/23 00:00:39;;;;;;;18.00;13.18;;;563.30;2329.60;;;;;;5065822;28;20020;-75
2021/07/23 00:03:05;;;;;;;18.05;12.60;;;563.40;2304.00;;;;;;5056474;28;20060;-77
2021/07/23 00:05:31;;;;;;;24.92;13.48;;;563.30;2329.60;;;;;;5068432;28;20526;-76
2021/07/23 00:07:57;;;;;;;19.73;13.93;;;563.20;2355.20;;;;;;5063315;28;20033;-77
2021/07/23 00:10:22;;;;;;;21.35;12.82;;;563.50;2304.00;;;;;;5065845;28;20073;-78
2021/07/23 00:12:48;;;;;;;19.35;13.75;;;563.40;2329.60;;;;;;5067116;28;20074;-80
2021/07/23 00:15:14;;;;;;;17.90;12.70;;;563.40;2329.60;;;;;;5070203;28;20024;-78
2021/07/23 00:17:40;;;;;;;23.95;13.55;;;563.50;2329.60;;;;;;5074255;28;20017;-76
2021/07/23 00:20:06;;;;;;;18.80;13.10;;;563.50;2355.20;;;;;;5055951;28;20496;-74
2021/07/23 00:22:32;;;;;;;20.20;13.30;;;563.70;2355.20;;;;;;5074460;28;20861;-78
2021/07/23 00:24:58;;;;;;;26.42;14.90;;;563.60;2355.20;;;;;;5071648;28;20092;-75
2021/07/23 00:27:24;;;;;;;21.33;13.15;;;563.80;2329.60;;;;;;5055305;28;20017;-75
2021/07/23 00:29:50;;;;;;;23.55;12.95;;;563.90;2329.60;;;;;;5039712;28;20029;-75
2021/07/23 00:32:15;;;;;;;18.42;12.75;;;564.00;2329.60;;;;;;5057418;28;20023;-76
2021/07/23 00:34:41;;;;;;;20.27;13.77;;;563.90;2329.60;;;;;;5038784;28;20060;-77
2021/07/23 00:37:07;;;;;;;18.98;13.23;;;563.90;2304.00;;;;;;5057911;28;20035;-83
2021/07/23 00:39:33;;;;;;;21.90;12.93;;;563.90;2304.00;;;;;;5055480;28;20029;-76
2021/07/23 00:41:58;;;;;;;18.17;13.27;;;563.80;2304.00;;;;;;5059000;28;20032;-81
2021/07/23 00:44:24;;;;;;;18.92;12.25;;;563.80;2252.80;;;;;;5056394;28;20017;-77
2021/07/23 00:46:50;;;;;;;18.65;12.85;;;563.80;2252.80;;;;;;5070766;28;20393;-83
2021/07/23 00:49:16;;;;;;;17.98;11.98;;;563.80;2252.80;;;;;;5071377;28;20474;-75
2021/07/23 00:51:42;;;;;;;14.95;11.48;;;563.70;2252.80;;;;;;5073745;28;20041;-82
2021/07/23 00:54:10;;;;;;;19.48;12.10;;;563.60;2252.80;;;;;;5074038;28;20021;-78
2021/07/23 00:56:36;;;;;;;17.40;12.35;;;563.50;2252.80;;;;;;5071110;28;20154;-83
2021/07/23 00:59:02;;;;;;;17.20;11.85;;;563.60;2227.20;;;;;;5056072;28;20035;-75
2021/07/23 01:01:29;;;;;;;15.65;12.18;;;563.50;2227.20;;;;;;5056197;28;20473;-76
2021/07/23 01:03:56;;;;;;;17.52;11.20;;;563.50;2227.20;;;;;;5073675;28;20105;-76
2021/07/23 01:06:22;;;;;;;20.48;11.63;;;563.60;2227.20;;;;;;5073486;28;20050;-82
2021/07/23 01:08:48;;;;;;;16.15;10.80;;;563.50;2227.20;;;;;;5073191;28;20048;-74
2021/07/23 01:11:14;;;;;;;18.60;13.52;;;563.40;2252.80;;;;;;5073003;28;20094;-76
2021/07/23 01:13:41;;;;;;;18.23;12.32;;;563.40;2252.80;;;;;;5054964;28;20056;-74
2021/07/23 01:16:07;;;;;;;18.75;11.40;;;563.40;2252.80;;;;;;5072808;28;20088;-74
2021/07/23 01:18:33;;;;;;;17.83;10.88;;;563.30;2252.80;;;;;;5072331;28;20111;-74
2021/07/23 01:21:00;;;;;;;16.63;11.57;;;563.20;2278.40;;;;;;5072134;28;20029;-73
2021/07/23 01:23:33;;;;;;;20.35;11.63;;;538.50;2252.80;;;;;;5071964;28;20055;-73
2021/07/23 01:26:00;;;;;;;17.50;11.60;;;563.20;2278.40;;;;;;5070869;28;20017;-73
2021/07/23 01:28:28;;;;;;;18.48;12.35;;;563.20;2278.40;;;;;;5054546;28;20039;-76
2021/07/23 01:30:54;;;;;;;14.27;12.02;;;563.30;2278.40;;;;;;5072227;28;20031;-74
2021/07/23 01:33:20;;;;;;;19.70;12.32;;;563.20;2278.40;;;;;;5072360;28;20096;-74
2021/07/23 01:35:46;;;;;;;14.85;11.32;;;538.10;2252.80;;;;;;5072229;28;20028;-74
2021/07/23 01:38:15;;;;;;;17.80;13.02;;;563.20;2278.40;;;;;;5071820;28;20032;-74
2021/07/23 01:40:44;;;;;;;16.67;12.50;;;563.20;2278.40;;;;;;5070197;28;20034;-74
2021/07/23 01:43:11;;;;;;;17.95;12.32;;;563.20;2278.40;;;;;;5053935;28;20033;-74
2021/07/23 01:45:37;;;;;;;18.48;12.75;;;563.20;2304.00;;;;;;5072402;28;20534;-75
2021/07/23 01:48:02;;;;;;;17.08;12.68;;;563.30;2278.40;;;;;;5072390;28;20024;-74
2021/07/23 01:50:29;;;;;;;16.88;12.65;;;563.40;2278.40;;;;;;5061056;28;20134;-78
2021/07/23 01:52:55;;;;;;;19.55;13.52;;;563.30;2278.40;;;;;;5086376;28;20027;-74
2021/07/23 01:55:20;;;;;;;19.67;13.43;;;538.50;2278.40;;;;;;5088458;28;20066;-74
2021/07/23 01:57:46;;;;;;;23.92;13.85;;;538.50;2304.00;;;;;;5067491;28;20032;-74
2021/07/23 02:00:12;;;;;;;21.98;13.65;;;538.50;2304.00;;;;;;5086356;28;20434;-74
2021/07/23 02:02:38;;;;;;;22.35;14.13;;;538.50;2304.00;;;;;;5086556;28;20033;-73
2021/07/23 02:05:04;;;;;;;20.27;13.75;;;538.40;2304.00;;;;;;5084223;28;20091;-73
2021/07/23 02:07:30;;;;;;;21.48;14.13;;;538.30;2329.60;;;;;;5092095;28;20043;-74
2021/07/23 02:09:56;;;;;;;18.65;13.63;;;538.40;2329.60;;;;;;5089369;28;20016;-74
2021/07/23 02:12:22;;;;;;;24.27;13.77;;;538.40;2329.60;;;;;;5087740;28;20020;-74
2021/07/23 02:14:47;;;;;;;19.77;14.10;;;538.50;2304.00;;;;;;5082822;28;20374;-74
2021/07/23 02:17:13;;;;;;;22.67;13.50;;;538.50;2304.00;;;;;;5080657;28;20032;-75
2021/07/23 02:19:39;;;;;;;21.48;14.85;;;538.40;2329.60;;;;;;5070324;28;20100;-74
2021/07/23 02:22:06;;;;;;;23.20;15.27;;;538.20;2355.20;;;;;;5065470;28;20025;-75
2021/07/23 02:24:32;;;;;;;20.75;14.95;;;538.00;2380.80;;;;;;5088815;28;20024;-75
2021/07/23 02:26:57;;;;;;;23.00;14.48;;;537.90;2406.40;;;;;;5086291;28;20020;-75
2021/07/23 02:29:23;;;;;;;17.73;13.38;;;537.80;2406.40;;;;;;5076892;28;20028;-74
2021/07/23 02:31:49;;;;;;;19.35;14.15;;;537.80;2406.40;;;;;;5070678;28;20090;-73
2021/07/23 02:34:15;;;;;;;18.50;13.88;;;537.90;2406.40;;;;;;5078642;28;20032;-74
2021/07/23 02:36:42;;;;;;;26.33;14.63;;;538.00;2380.80;;;;;;5074913;28;20020;-74
2021/07/23 02:39:08;;;;;;;23.67;14.25;;;538.10;2380.80;;;;;;5084841;28;20059;-80
2021/07/23 02:41:33;;;;;;;18.45;14.63;;;538.10;2380.80;;;;;;5070415;28;20031;-74
2021/07/23 02:43:59;;;;;;;22.60;15.13;;;538.20;2380.80;;;;;;5083875;28;20043;-74
2021/07/23 02:46:25;;;;;;;22.98;15.95;;;538.30;2380.80;;;;;;5086139;28;20020;-74
2021/07/23 02:48:50;;;;;;;22.23;15.23;;;538.20;2380.80;;;;;;5085653;28;20448;-76
2021/07/23 02:51:16;;;;;;;21.83;14.50;;;538.30;2355.20;;;;;;5091473;28;20054;-74
2021/07/23 02:53:42;;;;;;;19.70;15.65;;;538.20;2380.80;;;;;;5083749;28;20050;-73
2021/07/23 02:56:07;;;;;;;23.48;15.82;;;538.20;2380.80;;;;;;5091665;28;20016;-74
2021/07/23 02:58:40;;;;;;;21.02;14.40;;;538.20;2380.80;;;;;;5083994;28;20020;-73
2021/07/23 03:01:07;;;;;;;22.23;15.38;;;538.20;2406.40;;;;;;5082741;28;20016;-72
2021/07/23 03:03:32;;;;;;;17.45;14.40;;;538.20;2380.80;;;;;;5088436;28;20036;-73
2021/07/23 03:06:01;;;;;;;23.83;15.52;;;538.20;2406.40;;;;;;5081898;28;20012;-77
2021/07/23 03:08:27;;;;;;;26.02;15.82;;;538.20;2406.40;;;;;;5090261;28;20035;-73
2021/07/23 03:10:53;;;;;;;24.67;15.30;;;538.20;2380.80;;;;;;5085331;28;20504;-75
2021/07/23 03:13:19;;;;;;;23.48;15.25;;;538.20;2380.80;;;;;;5073479;28;20469;-74
2021/07/23 03:15:45;;;;;;;22.90;15.25;;;538.10;2380.80;;;;;;5062610;28;20017;-74
2021/07/23 03:18:11;;;;;;;22.33;15.57;;;538.20;2380.80;;;;;;5081473;28;20065;-73
2021/07/23 03:20:39;;;;;;;20.20;15.38;;;538.20;2380.80;;;;;;5073916;28;20042;-74
2021/07/23 03:23:05;;;;;;;21.05;15.98;;;538.20;2406.40;;;;;;5072471;28;20040;-75
2021/07/23 03:25:32;;;;;;;20.20;15.35;;;538.20;2380.80;;;;;;5094831;28;20412;-73
2021/07/23 03:27:58;;;;;;;21.60;16.33;;;538.00;2406.40;;;;;;5087010;28;20114;-75
2021/07/23 03:30:24;;;;;;;23.35;16.95;;;537.90;2406.40;;;;;;5067120;28;20103;-74
2021/07/23 03:32:49;;;;;;;28.98;17.13;;;537.60;2406.40;;;;;;5094852;28;20020;-74
2021/07/23 03:35:15;;;;;;;27.77;17.35;;;512.90;2380.80;;;;;;5095014;28;20030;-74
2021/07/23 03:37:41;;;;;;;24.35;16.45;;;512.60;2380.80;;;;;;5065273;28;20517;-73
2021/07/23 03:40:08;;;;;;;24.00;16.45;;;512.50;2380.80;;;;;;5086307;28;20063;-76
2021/07/23 03:42:34;;;;;;;24.48;17.10;;;512.20;2380.80;;;;;;5087075;28;20043;-72
2021/07/23 03:45:00;;;;;;;23.88;17.08;;;512.30;2380.80;;;;;;5070742;28;20012;-73
2021/07/23 03:47:26;;;;;;;20.27;15.70;;;512.10;2380.80;;;;;;5073512;28;20108;-73
2021/07/23 03:49:52;;;;;;;26.02;16.95;;;512.40;2380.80;;;;;;5091738;28;20127;-73
2021/07/23 03:52:17;;;;;;;21.60;15.68;;;512.40;2380.80;;;;;;5064616;28;20759;-74
2021/07/23 03:54:43;;;;;;;21.02;15.27;;;512.50;2380.80;;;;;;5089084;28;20099;-78
2021/07/23 03:57:09;;;;;;;20.98;15.23;;;512.50;2380.80;;;;;;5087559;28;20046;-73
2021/07/23 03:59:35;;;;;;;19.25;15.40;;;512.50;2380.80;;;;;;5093976;28;20393;-74
2021/07/23 04:02:02;;;;;;;20.35;14.70;;;512.60;2380.80;;;;;;5086679;28;20483;-78
2021/07/23 04:04:27;;;;;;;18.17;14.88;;;512.60;2380.80;;;;;;5086888;28;20031;-74
2021/07/23 04:07:00;;;;;;;25.20;15.65;;;512.80;2380.80;;;;;;5085570;28;20374;-76
2021/07/23 04:09:26;;;;;;;21.60;15.63;;;512.90;2380.80;;;;;;5090071;28;20451;-73
2021/07/23 04:11:53;;;;;;;21.52;16.00;;;537.90;2406.40;;;;;;5086503;28;20012;-76
2021/07/23 04:14:19;;;;;;;22.90;16.30;;;512.90;2380.80;;;;;;5066662;28;20045;-74
2021/07/23 04:16:45;;;;;;;19.33;14.88;;;538.10;2406.40;;;;;;5080146;28;20016;-77
2021/07/23 04:19:11;;;;;;;19.75;15.10;;;537.80;2406.40;;;;;;5058929;28;20062;-74
2021/07/23 04:21:37;;;;;;;23.70;15.15;;;537.90;2406.40;;;;;;5075804;28;20028;-81
2021/07/23 04:24:03;;;;;;;27.42;15.88;;;538.10;2406.40;;;;;;5065547;28;20120;-82
2021/07/23 04:26:29;;;;;;;21.30;14.70;;;538.20;2380.80;;;;;;5074672;28;20028;-84
2021/07/23 04:28:55;;;;;;;23.10;14.43;;;;;;;;;;5050298;28;20536;-82
2021/07/23 04:31:21;;;;;;;23.75;15.80;;;538.30;2380.80;;;;;;5061644;28;20017;-84
2021/07/23 04:33:47;;;;;;;18.25;14.02;;;538.30;2355.20;;;;;;5066453;28;20028;-81
2021/07/23 04:36:13;;;;;;;22.58;14.43;;;538.40;2355.20;;;;;;5075461;28;20043;-85
2021/07/23 04:38:39;;;;;;;22.35;15.57;;;538.40;2355.20;;;;;;5072639;28;20021;-82
2021/07/23 04:41:04;;;;;;;22.42;16.05;;;538.50;2355.20;;;;;;5070429;28;20024;-89
2021/07/23 04:43:38;;;;;;;27.88;15.50;;;538.50;2355.20;;;;;;5065659;28;20193;-85
2021/07/23 04:46:04;;;;;;;17.75;14.23;;;538.50;2380.80;;;;;;5050706;28;20063;-83
2021/07/23 04:48:30;;;;;;;22.63;14.57;;;538.50;2355.20;;;;;;5060735;28;20039;-86
2021/07/23 04:50:55;;;;;;;28.15;16.25;;;538.50;2355.20;;;;;;5052196;28;20048;-79
2021/07/23 04:53:21;;;;;;;29.05;16.40;;;538.50;2329.60;;;;;;5065613;28;20083;-79
2021/07/23 04:55:52;;;;;;;24.67;15.60;;;563.20;2355.20;;;;;;5069959;28;20461;-79
2021/07/23 04:58:17;;;;;;;22.40;15.63;;;563.30;2380.80;;;;;;5066791;28;20023;-81
2021/07/23 05:00:45;;;;;;;28.70;17.77;;;563.40;2380.80;;;;;;5068082;28;20087;-83
2021/07/23 05:03:11;;;;;;;22.45;16.67;;;563.40;2355.20;;;;;;5075780;28;20198;-79
2021/07/23 05:05:40;;;;;;;23.17;16.67;;;563.40;2355.20;;;;;;5065342;28;20034;-84
2021/07/23 05:08:06;;;;;;;22.58;17.33;;;563.50;2355.20;;;;;;5069475;28;20028;-85
2021/07/23 05:10:32;;;;;;;22.52;17.55;;;563.60;2355.20;;;;;;5063645;28;20504;-84
2021/07/23 05:12:57;;;;;;;20.50;15.48;;;563.50;2329.60;;;;;;5074443;28;20122;-79
2021/07/23 05:15:23;;;;;;;34.22;16.92;;;563.60;2355.20;;;;;;5075366;28;20061;-81
2021/07/23 05:17:49;;;;;;;26.77;16.20;;;563.70;2355.20;;;;;;5075950;28;20028;-77
2021/07/23 05:20:15;;;;;;;25.00;14.63;;;563.60;2355.20;;;;;;5088313;28;20036;-79
2021/07/23 05:22:41;;;;;;;20.70;14.68;;;563.70;2329.60;;;;;;5086005;28;20328;-80
2021/07/23 05:25:08;;;;;;;23.85;13.75;;;563.70;2329.60;;;;;;5080427;28;20486;-78
2021/07/23 05:27:35;;;;;;;32.08;14.98;;;563.80;2329.60;;;;;;5059588;28;20047;-79
2021/07/23 05:30:01;;;;;;;23.17;15.07;;;563.70;2355.20;;;;;;5070973;28;20028;-79
2021/07/23 05:32:26;;;;;;;21.90;14.25;;;563.80;2329.60;;;;;;5092255;28;20089;-78
2021/07/23 05:34:52;;;;;;;20.75;14.68;;;563.80;2329.60;;;;;;5066904;28;20114;-78
2021/07/23 05:37:18;;;;;;;18.33;14.27;;;563.80;2304.00;;;;;;5067427;28;20027;-78
2021/07/23 05:39:43;;;;;;;19.50;14.45;;;564.00;2304.00;;;;;;5067126;28;20069;-75
2021/07/23 05:42:09;;;;;;;21.38;14.45;;;564.10;2304.00;;;;;;5076272;28;20100;-78
2021/07/23 05:44:35;;;;;;;21.10;15.18;;;564.10;2329.60;;;;;;5081055;28;20130;-76
2021/07/23 05:47:01;;;;;;;21.88;15.95;;;564.10;2304.00;;;;;;5082466;28;20300;-75
2021/07/23 05:49:28;;;;;;;22.23;15.32;;;564.10;2329.60;;;;;;5051896;28;20070;-80
2021/07/23 05:51:54;;;;;;;21.35;15.10;;;564.10;2329.60;;;;;;5052203;28;20056;-79
2021/07/23 05:54:20;;;;;;;24.00;16.13;;;564.10;2304.00;;;;;;5077551;28;20032;-77
2021/07/23 05:56:46;;;;;;;25.33;16.27;;;564.10;2329.60;;;;;;5082401;28;20024;-80
2021/07/23 05:59:12;;;;;;;22.33;16.42;;;588.80;2329.60;;;;;;5080638;28;20055;-77
2021/07/23 06:01:38;;;;;;;24.02;16.10;;;588.80;2329.60;;;;;;5069552;28;20027;-80
2021/07/23 06:04:04;;;;;;;24.83;16.67;;;588.90;2304.00;;;;;;5092440;28;20050;-76
2021/07/23 06:06:30;;;;;;;23.83;16.65;;;589.00;2304.00;;;;;;5091178;28;20067;-74
2021/07/23 06:08:58;;;;;;;27.25;18.70;;;589.10;2278.40;;;;;;5091616;28;20026;-80
2021/07/23 06:11:24;;;;;;;28.65;18.40;;;589.10;2278.40;;;;;;5087905;28;20111;-74
2021/07/23 06:13:49;;;;;;;29.00;20.02;;;589.20;2252.80;;;;;;5065069;28;20526;-77
2021/07/23 06:16:15;;;;;;;27.23;17.90;;;589.20;2252.80;;;;;;5065080;28;20029;-76
2021/07/23 06:18:41;;;;;;;28.95;16.55;;;589.20;2252.80;;;;;;5082162;28;20067;-78
2021/07/23 06:21:07;;;;;;;25.95;15.73;;;589.40;2252.80;;;;;;5068332;28;20469;-75
2021/07/23 06:23:33;;;;;;;34.92;18.17;;;589.50;2252.80;;;;;;5098799;28;20516;-76
2021/07/23 06:26:05;;;;;;;20.85;15.85;;;589.60;2252.80;;;;;;5081818;28;20049;-76
2021/07/23 06:28:31;;;;;;;25.75;14.35;;;589.70;2201.60;;;;;;5078693;28;20031;-81
2021/07/23 06:31:04;;;;;;;27.00;15.23;;;614.40;2176.00;;;;;;5081630;28;20065;-77
2021/07/23 06:33:31;;;;;;;20.48;15.18;;;614.40;2201.60;;;;;;5079027;28;20472;-81
2021/07/23 06:35:57;;;;;;;19.85;14.40;;;614.50;2176.00;;;;;;5081233;28;20017;-77
2021/07/23 06:38:23;;;;;;;22.08;13.93;;;614.60;2176.00;;;;;;5066766;28;20021;-80
2021/07/23 06:40:48;;;;;;;26.90;12.63;;;614.80;2176.00;;;;;;5088583;28;20012;-77
2021/07/23 06:43:14;;;;;;;22.05;13.05;;;614.80;2099.20;;;;;;5067510;28;20025;-80
2021/07/23 06:45:40;;;;;;;17.55;11.40;;;614.90;2073.60;;;;;;5067187;28;20020;-80
2021/07/23 06:48:06;;;;;;;18.55;13.05;;;615.10;2073.60;;;;;;5071083;28;20113;-79
2021/07/23 06:50:32;;;;;;;19.95;12.13;;;615.10;2048.00;;;;;;5063598;28;20051;-80
2021/07/23 06:53:01;;;;;;;15.45;10.70;;;615.10;2048.00;;;;;;5076371;28;20039;-76
2021/07/23 06:55:26;;;;;;;18.35;12.27;;;615.30;2048.00;;;;;;5090831;28;20461;-74
2021/07/23 06:57:52;;;;;;;16.70;11.35;;;615.30;2048.00;;;;;;5097754;28;20035;-75
2021/07/23 07:00:18;;;;;;;21.08;12.48;;;640.00;2048.00;;;;;;5060243;28;20517;-76
2021/07/23 07:02:44;;;;;;;19.92;11.00;;;640.10;2022.40;;;;;;5093625;28;20055;-78
2021/07/23 07:05:10;;;;;;;12.80;10.85;;;640.20;1996.80;;;;;;5072235;28;20013;-81
2021/07/23 07:07:36;;;;;;;20.67;13.43;;;640.20;1996.80;;;;;;5069423;28;20405;-77
2021/07/23 07:10:01;;;;;;;17.92;11.38;;;640.40;1996.80;;;;;;5085632;28;20026;-76
2021/07/23 07:12:27;;;;;;;14.32;10.35;;;640.40;1971.20;;;;;;5058737;28;20059;-79
2021/07/23 07:14:53;;;;;;;15.27;10.35;;;640.50;1920.00;;;;;;5069405;28;20060;-77
2021/07/23 07:17:20;;;;;;;18.70;10.23;;;640.70;1920.00;;;;;;5077528;28;20425;-77
2021/07/23 07:19:46;;;;;;;14.18;9.88;;;640.90;1920.00;;;;;;5089732;28;20385;-78
2021/07/23 07:22:12;;;;;;;16.42;10.32;;;665.60;1920.00;;;;;;5080516;28;20191;-78
2021/07/23 07:24:37;;;;;;;18.35;11.10;;;665.70;1868.80;;;;;;5080233;28;20088;-77
2021/07/23 07:27:03;;;;;;;17.00;9.93;;;665.90;1843.20;;;;;;5068402;28;20019;-77
2021/07/23 07:29:29;;;;;;;17.50;10.45;;;665.90;1843.20;;;;;;5074567;28;20031;-78
2021/07/23 07:31:55;;;;;;;15.10;11.23;;;666.00;1843.20;;;;;;5070796;28;20549;-78
2021/07/23 07:34:20;;;;;;;18.08;10.82;;;666.00;1843.20;;;;;;5076334;28;20039;-78
2021/07/23 07:36:46;;;;;;;15.77;9.75;;;666.00;1817.60;;;;;;5075013;28;20397;-80
2021/07/23 07:39:13;;;;;;;18.27;9.90;;;666.10;1843.20;;;;;;5100724;28;20068;-77
2021/07/23 07:41:39;;;;;;;12.98;9.07;;;666.20;1766.40;;;;;;5065284;28;20568;-81
2021/07/23 07:44:05;;;;;;;14.68;9.10;;;666.50;1715.20;;;;;;5079371;28;20173;-80
2021/07/23 07:46:34;;;;;;;16.63;8.70;;;666.50;1715.20;;;;;;5091707;28;20016;-77
2021/07/23 07:49:00;;;;;;;14.35;9.57;;;691.20;1689.60;;;;;;5093337;28;20032;-80
2021/07/23 07:51:26;;;;;;;18.42;10.02;;;691.20;1689.60;;;;;;5073177;28;20048;-83
2021/07/23 07:53:51;;;;;;;16.75;9.00;;;691.40;1689.60;;;;;;5076998;28;20393;-79
2021/07/23 07:56:17;;;;;;;19.45;8.23;;;691.50;1638.40;;;;;;5104124;28;20024;-76
2021/07/23 07:58:43;;;;;;;12.30;9.02;;;691.40;1638.40;;;;;;5095636;28;20021;-83
2021/07/23 08:01:11;;;;;;;13.25;9.20;;;691.60;1664.00;;;;;;5087380;28;20032;-77
2021/07/23 08:03:37;;;;;;;15.77;8.60;;;691.80;1638.40;;;;;;5076656;28;20554;-79
2021/07/23 08:06:19;;;;;;;14.18;9.30;;;691.80;1612.80;;;;;;5078413;28;20024;-77
2021/07/23 08:08:45;;;;;;;14.07;8.90;;;691.90;1612.80;;;;;;5091595;28;20024;-79
2021/07/23 08:11:11;;;;;;;15.65;8.75;;;691.90;1664.00;;;;;;5072637;28;20461;-82
2021/07/23 08:13:37;;;;;;;11.55;7.65;;;692.10;1638.40;;;;;;5072395;28;20036;-77
2021/07/23 08:16:04;;;;;;;19.15;8.48;;;692.10;1536.00;;;;;;5092979;28;20052;-79
2021/07/23 08:18:30;;;;;;;14.40;9.98;;;692.10;1561.60;;;;;;5086456;28;20024;-79
2021/07/23 08:20:56;;;;;;;9.93;6.82;;;716.80;1484.80;;;;;;5071499;28;20036;-79
2021/07/23 08:23:22;;;;;;;11.43;7.07;;;716.80;1587.20;;;;;;5065012;28;20642;-79
2021/07/23 08:25:48;;;;;;;9.05;7.13;;;716.90;1510.40;;;;;;5067029;28;20027;-80
2021/07/23 08:28:15;;;;;;;18.13;8.30;;;717.00;1587.20;;;;;;5067302;28;20563;-83
2021/07/23 08:30:44;;;;;;;12.82;7.43;;;717.10;1587.20;;;;;;5070377;28;20429;-86
2021/07/23 08:33:10;;;;;;;10.00;7.45;;;717.10;1612.80;;;;;;5076799;28;20039;-84
2021/07/23 08:35:37;;;;;;;10.90;6.75;;;717.20;1510.40;;;;;;5076497;28;20032;-84
2021/07/23 08:38:03;;;;;;;10.27;6.85;;;717.20;1536.00;;;;;;5108942;28;20081;-83
2021/07/23 08:40:29;;;;;;;9.77;7.32;;;717.40;1459.20;;;;;;5097458;28;20039;-79
2021/07/23 08:42:54;;;;;;;11.43;6.63;;;717.50;1510.40;;;;;;5094201;28;20066;-78
2021/07/23 08:45:21;;;;;;;10.70;5.93;;;717.50;1382.40;;;;;;5073114;28;20036;-83
2021/07/23 08:47:57;;;;;;;11.55;6.75;;;717.50;1382.40;;;;;;5075394;28;20024;-80
2021/07/23 08:50:24;;;;;;;10.07;6.80;;;717.50;1459.20;;;;;;5090389;28;20090;-86
2021/07/23 08:52:50;;;;;;;8.48;6.88;;;717.50;1459.20;;;;;;5091137;28;20054;-90
2021/07/23 08:55:18;;;;;;;10.20;6.78;;;717.60;1433.60;;;;;;5086827;28;20025;-76
2021/07/23 08:57:45;;;;;;;12.43;6.07;;;717.60;1408.00;;;;;;5079446;28;20048;-75
2021/07/23 09:00:15;;;;;;;10.75;6.35;;;717.60;1331.20;;;;;;5093551;28;20059;-85
2021/07/23 09:02:51;;;;;;;11.35;6.05;;;717.60;1382.40;;;;;;5093934;28;20081;-79
2021/07/23 09:05:17;;;;;;;12.02;6.47;;;717.60;1356.80;;;;;;5074831;28;20137;-77
2021/07/23 09:07:43;;;;;;;13.85;6.88;;;717.70;1408.00;;;;;;5093424;28;20515;-81
2021/07/23 09:10:09;;;;;;;10.68;6.88;;;717.70;1356.80;;;;;;5093269;28;20020;-78
2021/07/23 09:12:41;;;;;;;12.45;5.95;;;717.70;1382.40;;;;;;5075772;28;20040;-77
2021/07/23 09:15:37;;;;;;;11.50;6.22;;;742.40;1408.00;;;;;;5091529;28;20035;-82
2021/07/23 09:18:05;;;;;;;8.77;6.72;;;742.40;1331.20;;;;;;5076189;28;20036;-82
2021/07/23 09:20:31;;;;;;;11.20;6.43;;;742.40;1356.80;;;;;;5094042;28;20082;-86
2021/07/23 09:23:00;;;;;;;10.88;6.95;;;742.50;1331.20;;;;;;5069510;28;20033;-84
2021/07/23 09:25:42;;;;;;;9.85;6.85;;;742.50;1331.20;;;;;;5088166;28;20024;-83
2021/07/23 09:28:19;;;;;;;10.50;5.90;;;742.50;1280.00;;;;;;5092416;28;20020;-75
2021/07/23 09:30:45;;;;;;;9.45;6.07;;;742.60;1305.60;;;;;;5085560;28;20389;-77
2021/07/23 09:33:12;;;;;;;9.23;6.68;;;742.60;1305.60;;;;;;5093319;28;20024;-76
2021/07/23 09:35:50;;;;;;;11.55;6.57;;;742.70;1305.60;;;;;;5074474;28;20036;-76
2021/07/23 09:38:16;;;;;;;8.48;6.22;;;742.80;1331.20;;;;;;5070989;28;20024;-75
2021/07/23 09:40:44;;;;;;;8.48;6.22;;;742.90;1356.80;;;;;;5083767;28;20035;-76
2021/07/23 09:43:10;;;;;;;9.48;5.97;;;742.90;1280.00;;;;;;5090981;28;20420;-75
2021/07/23 09:45:36;;;;;;;9.02;6.95;;;743.00;1254.40;;;;;;5085841;28;20028;-77
2021/07/23 09:48:09;;;;;;;12.88;6.97;;;743.00;1382.40;;;;;;5074189;28;20081;-76
2021/07/23 09:50:40;;;;;;;11.25;6.72;;;743.20;1280.00;;;;;;5086504;28;20051;-80
2021/07/23 09:53:10;;;;;;;10.73;7.05;;;743.30;1203.20;;;;;;5074459;28;20085;-76
2021/07/23 09:55:37;;;;;;;9.57;6.43;;;768.10;1228.80;;;;;;5091055;28;20522;-76
2021/07/23 09:58:06;;;;;;;11.65;6.60;;;768.10;1280.00;;;;;;5087434;28;20016;-77
2021/07/23 10:00:41;;;;;;;12.38;7.43;;;768.30;1203.20;;;;;;5080956;28;20036;-76
2021/07/23 10:03:12;;;;;;;11.60;7.18;;;768.30;1254.40;;;;;;5061790;28;20033;-81
2021/07/23 10:05:50;;;;;;;9.70;7.03;;;768.60;1228.80;;;;;;5064411;28;20036;-78
2021/07/23 10:08:30;;;;;;;10.98;6.40;;;768.60;1203.20;;;;;;5086079;28;20429;-78
2021/07/23 10:10:56;;;;;;;7.90;6.50;;;768.40;1203.20;;;;;;5061638;28;20029;-78
2021/07/23 10:13:23;;;;;;;9.52;6.95;;;768.60;1203.20;;;;;;5081318;28;20120;-78
2021/07/23 10:15:50;;;;;;;8.20;6.45;;;768.60;1177.60;;;;;;5083121;28;20024;-78
2021/07/23 10:18:17;;;;;;;8.40;6.47;;;768.80;1228.80;;;;;;5073997;28;20031;-77
2021/07/23 10:20:46;;;;;;;11.13;6.43;;;768.90;1203.20;;;;;;5072674;28;20454;-77
2021/07/23 10:23:17;;;;;;;13.00;7.20;;;768.90;1177.60;;;;;;5084939;28;20676;-78
2021/07/23 10:25:43;;;;;;;11.00;6.20;;;793.60;1177.60;;;;;;5062382;28;20071;-78
2021/07/23 10:28:10;;;;;;;10.43;7.10;;;793.60;1177.60;;;;;;5088517;28;20037;-77
2021/07/23 10:30:36;;;;;;;8.70;6.65;;;768.80;1177.60;;;;;;5073373;28;20021;-78
2021/07/23 10:33:05;;;;;;;9.55;6.43;;;793.60;1254.40;;;;;;5084521;28;20047;-77
2021/07/23 10:35:32;;;;;;;11.27;6.40;;;793.80;1228.80;;;;;;5069583;28;20024;-77
2021/07/23 10:37:59;;;;;;;9.13;6.53;;;793.80;1203.20;;;;;;5061864;28;20025;-79
2021/07/23 10:40:34;;;;;;;12.43;7.45;;;794.00;1228.80;;;;;;5063742;28;20113;-82
2021/07/23 10:43:00;;;;;;;9.30;6.60;;;794.10;1228.80;;;;;;5067693;28;20032;-78
2021/07/23 10:45:42;;;;;;;9.57;6.63;;;794.10;1228.80;;;;;;5080352;28;20032;-79
2021/07/23 10:48:08;;;;;;;8.57;6.43;;;793.60;1228.80;;;;;;5078730;28;20307;-82
2021/07/23 10:50:40;;;;;;;9.73;6.15;;;794.00;1228.80;;;;;;5068761;28;20045;-80
2021/07/23 10:53:27;;;;;;;11.35;6.38;;;794.10;1203.20;;;;;;5083565;28;20028;-82
2021/07/23 10:55:53;;;;;;;8.13;5.65;;;794.40;1203.20;;;;;;5082041;28;20120;-77
2021/07/23 10:58:19;;;;;;;7.57;5.88;;;794.40;1203.20;;;;;;5084061;28;20100;-76
2021/07/23 11:00:51;;;;;;;7.95;5.78;;;794.40;1152.00;;;;;;5094898;28;20024;-84
2021/07/23 11:03:35;;;;;;;8.48;6.13;;;794.40;1152.00;;;;;;5104193;28;20036;-81
2021/07/23 11:06:12;;;;;;;7.65;6.22;;;794.50;1203.20;;;;;;5060910;28;20074;-82
2021/07/23 11:08:47;;;;;;;10.18;6.32;;;794.30;1203.20;;;;;;5080668;28;20012;-80
2021/07/23 11:11:14;;;;;;;11.23;6.47;;;794.20;1177.60;;;;;;5094923;28;20035;-81
2021/07/23 11:13:40;;;;;;;8.57;5.82;;;793.70;1177.60;;;;;;5096122;28;20035;-81
2021/07/23 11:16:14;;;;;;;8.38;6.00;;;793.80;1152.00;;;;;;5082829;28;20591;-77
2021/07/23 11:18:54;;;;;;;8.55;6.10;;;794.20;1177.60;;;;;;5085459;28;20043;-77
2021/07/23 11:21:21;;;;;;;7.90;5.63;;;794.40;1177.60;;;;;;5095205;28;20077;-79
2021/07/23 11:23:47;;;;;;;7.35;5.72;;;794.50;1152.00;;;;;;5095405;28;20028;-78
2021/07/23 11:26:22;;;;;;;9.55;6.22;;;819.30;1126.40;;;;;;5074955;28;20032;-78
2021/07/23 11:28:50;;;;;;;13.13;7.13;;;819.30;1177.60;;;;;;5089423;28;20024;-84
2021/07/23 11:31:29;;;;;;;12.75;7.35;;;819.40;1152.00;;;;;;5083418;28;20103;-78
2021/07/23 11:33:55;;;;;;;10.02;6.60;;;819.40;1126.40;;;;;;5088990;28;20069;-78
2021/07/23 11:36:35;;;;;;;8.48;5.80;;;819.30;1126.40;;;;;;5095103;28;20439;-76
2021/07/23 11:39:02;;;;;;;9.30;6.20;;;819.30;1100.80;;;;;;5075973;28;20035;-80
2021/07/23 11:41:28;;;;;;;10.15;5.60;;;819.40;1075.20;;;;;;5095609;28;20408;-79
2021/07/23 11:44:10;;;;;;;8.43;5.80;;;794.50;1228.80;;;;;;5095172;28;20032;-78
2021/07/23 11:46:37;;;;;;;8.23;6.20;;;819.20;1203.20;;;;;;5080219;28;20111;-83
2021/07/23 11:49:04;;;;;;;8.80;5.70;;;819.40;1177.60;;;;;;5069506;28;20020;-81
2021/07/23 11:51:44;;;;;;;10.85;6.18;;;819.50;1100.80;;;;;;5075238;28;20068;-86
2021/07/23 11:54:18;;;;;;;9.90;6.95;;;819.60;1126.40;;;;;;5094916;28;20099;-85
2021/07/23 11:56:44;;;;;;;8.27;5.47;;;819.70;1152.00;;;;;;5076006;28;20032;-83
2021/07/23 11:59:10;;;;;;;11.25;6.13;;;819.80;1075.20;;;;;;5076644;28;20123;-76
2021/07/23 12:01:40;;;;;;;12.55;6.38;;;819.80;1075.20;;;;;;5094694;28;20082;-82
2021/07/23 12:04:07;;;;;;;7.45;6.10;;;819.80;1203.20;;;;;;5095147;28;20035;-78